Time;durP1;ratioP1;P1;durP2;ratioP2;P2;SDS_P1;SDS_P2;PMS_P1;PMS_P2;Temp;Humidity;BMP_temperature;BMP_pressure;BME280_temperature;BME280_humidity;BME280_pressure;Samples;Min_cycle;Max_cycle;Signal;HPM_P1;HPM_P2
2021/06/27 00:00:22;;;;;;;16.73;12.32;;;;;;;15.93;76.21;99488.69;5031466;28;20036;-61
2021/06/27 00:02:47;;;;;;;20.65;12.00;;;;;;;16.01;75.35;99496.25;5033061;28;20049;-61
2021/06/27 00:05:14;;;;;;;14.75;10.90;;;;;;;16.00;75.37;99488.41;5031423;28;20101;-61
2021/06/27 00:07:40;;;;;;;16.40;11.30;;;;;;;15.91;76.23;99488.97;5033333;28;20048;-61
2021/06/27 00:10:07;;;;;;;12.30;10.35;;;;;;;15.82;76.40;99493.28;5032807;28;20376;-61
2021/06/27 00:12:33;;;;;;;15.95;10.77;;;;;;;15.76;76.79;99488.16;5032994;28;20029;-61
2021/06/27 00:14:58;;;;;;;17.33;10.88;;;;;;;15.69;77.01;99488.41;5032898;28;20025;-61
2021/06/27 00:17:24;;;;;;;16.45;10.57;;;;;;;15.61;77.59;99484.34;5032470;28;20044;-61
2021/06/27 00:19:49;;;;;;;22.20;11.65;;;;;;;15.52;78.37;99489.47;5031478;28;20026;-61
2021/06/27 00:22:14;;;;;;;17.27;11.23;;;;;;;15.61;78.21;99481.63;5032001;28;20036;-61
2021/06/27 00:24:40;;;;;;;14.60;10.68;;;;;;;15.57;77.44;99485.13;5032923;28;20033;-61
2021/06/27 00:27:06;;;;;;;14.93;10.70;;;;;;;15.45;78.47;99485.38;5032404;28;20042;-61
2021/06/27 00:29:31;;;;;;;18.85;11.80;;;;;;;15.40;78.72;99488.09;5032895;28;20486;-61
2021/06/27 00:31:56;;;;;;;15.45;11.68;;;;;;;15.38;78.69;99487.56;5032459;28;20041;-61
2021/06/27 00:34:22;;;;;;;21.58;13.65;;;;;;;15.21;79.67;99483.19;5032828;28;20033;-61
2021/06/27 00:36:47;;;;;;;20.50;13.30;;;;;;;15.23;79.84;99481.06;5032308;28;20506;-61
2021/06/27 00:39:13;;;;;;;22.20;14.07;;;;;;;15.23;79.50;99478.34;5032671;28;20120;-61
2021/06/27 00:41:38;;;;;;;22.42;13.85;;;;;;;15.27;79.04;99479.41;5031221;28;20041;-61
2021/06/27 00:44:04;;;;;;;22.55;14.20;;;;;;;15.32;78.55;99476.75;5032598;28;20125;-61
2021/06/27 00:46:29;;;;;;;19.55;13.55;;;;;;;15.35;79.01;99477.28;5032150;28;20091;-61
2021/06/27 00:48:55;;;;;;;18.83;13.05;;;;;;;15.28;78.38;99475.66;5032631;28;20116;-61
2021/06/27 00:51:22;;;;;;;17.50;12.85;;;;;;;15.27;78.76;99474.03;5021423;28;20053;-61
2021/06/27 00:53:49;;;;;;;19.27;13.60;;;;;;;15.28;78.68;99474.84;5013051;28;20053;-61
2021/06/27 00:56:15;;;;;;;20.13;14.32;;;;;;;15.24;79.05;99474.56;5022722;28;20037;-61
2021/06/27 00:58:41;;;;;;;20.95;14.05;;;;;;;15.20;79.22;99469.94;5014957;28;20499;-61
2021/06/27 01:01:07;;;;;;;20.05;13.98;;;;;;;15.01;80.12;99466.94;5033587;28;20045;-61
2021/06/27 01:03:33;;;;;;;19.95;14.82;;;;;;;14.93;80.49;99464.78;5036042;28;20026;-61
2021/06/27 01:05:58;;;;;;;23.20;15.23;;;;;;;14.94;80.23;99464.50;5035967;28;20091;-61
2021/06/27 01:08:24;;;;;;;27.42;14.90;;;;;;;14.96;80.02;99475.03;5036326;28;20021;-61
2021/06/27 01:10:49;;;;;;;19.25;14.20;;;;;;;14.93;79.75;99475.56;5035794;28;20033;-61
2021/06/27 01:13:21;;;;;;;27.30;14.50;;;;;;;14.93;79.96;99464.78;5036264;28;20482;-61
2021/06/27 01:15:46;;;;;;;28.88;15.52;;;;;;;14.82;80.59;99478.22;5035682;28;20400;-61
2021/06/27 01:18:12;;;;;;;24.38;14.55;;;;;;;14.72;81.23;99458.47;5018499;28;20080;-61
2021/06/27 01:20:38;;;;;;;26.50;14.50;;;;;;;14.64;81.28;99468.69;5034321;28;20377;-61
2021/06/27 01:23:08;;;;;;;26.58;13.80;;;;;;;14.68;80.62;99463.59;5036080;28;20021;-61
2021/06/27 01:25:35;;;;;;;18.25;12.43;;;;;;;14.69;80.78;99470.63;5031185;28;20092;-61
2021/06/27 01:28:00;;;;;;;21.88;13.07;;;;;;;14.62;81.11;99464.66;4998597;28;20112;-61
2021/06/27 01:30:27;;;;;;;24.92;15.13;;;;;;;14.53;82.00;99460.81;5019194;28;20041;-61
2021/06/27 01:32:54;;;;;;;25.75;16.67;;;;;;;14.51;82.12;99458.38;5035718;28;20017;-61
2021/06/27 01:35:22;;;;;;;23.67;15.85;;;;;;;14.43;82.11;99462.38;5034112;28;20064;-61
2021/06/27 01:37:48;;;;;;;21.88;15.65;;;;;;;14.44;82.08;99472.09;5035765;28;20476;-60
2021/06/27 01:40:15;;;;;;;24.80;15.63;;;;;;;14.44;82.15;99474.78;5034045;28;20026;-61
2021/06/27 01:42:41;;;;;;;29.13;15.55;;;;;;;14.49;81.90;99470.50;5035664;28;20029;-60
2021/06/27 01:45:14;;;;;;;28.23;16.20;;;;;;;14.50;81.49;99472.91;5035095;28;20444;-60
2021/06/27 01:47:39;;;;;;;19.92;14.70;;;;;;;14.59;81.36;99470.56;5035423;28;20026;-61
2021/06/27 01:50:06;;;;;;;19.88;14.48;;;;;;;14.46;81.43;99467.25;5035252;28;20067;-61
2021/06/27 01:52:32;;;;;;;23.20;15.02;;;;;;;14.36;81.89;99477.97;5035703;28;20053;-60
2021/06/27 01:54:57;;;;;;;19.63;14.07;;;;;;;14.35;82.67;99479.06;5035487;28;20030;-61
2021/06/27 01:57:23;;;;;;;24.55;15.10;;;;;;;14.48;81.29;99479.63;5033594;28;20087;-61
2021/06/27 01:59:49;;;;;;;27.42;15.52;;;;;;;14.41;81.69;99483.41;5035120;28;20037;-61
2021/06/27 02:02:16;;;;;;;24.88;15.20;;;;;;;14.32;82.17;99481.44;4998785;28;20397;-61
2021/06/27 02:04:41;;;;;;;22.65;14.77;;;;;;;14.26;82.61;99477.91;5015526;28;20157;-60
2021/06/27 02:07:07;;;;;;;27.45;16.77;;;;;;;14.37;81.61;99473.38;5014952;28;20459;-61
2021/06/27 02:09:32;;;;;;;25.40;14.73;;;;;;;14.49;81.50;99475.88;5015373;28;20022;-61
2021/06/27 02:11:57;;;;;;;21.35;14.48;;;;;;;14.54;80.61;99465.16;5030364;28;20044;-61
2021/06/27 02:14:23;;;;;;;24.80;13.68;;;;;;;14.50;80.62;99455.94;5034952;28;20376;-61
2021/06/27 02:16:49;;;;;;;19.92;12.57;;;;;;;14.48;80.28;99463.47;5034525;28;20483;-61
2021/06/27 02:19:14;;;;;;;27.45;13.20;;;;;;;14.37;80.72;99463.41;5035064;28;20040;-61
2021/06/27 02:21:40;;;;;;;23.33;13.88;;;;;;;14.30;81.72;99462.81;5034065;28;20034;-61
2021/06/27 02:24:05;;;;;;;23.23;13.10;;;;;;;14.33;82.38;99456.94;5033444;28;20025;-61
2021/06/27 02:26:31;;;;;;;22.48;14.70;;;;;;;14.40;82.18;99454.81;5034474;28;20045;-61
2021/06/27 02:28:57;;;;;;;23.35;15.85;;;;;;;14.44;82.13;99452.41;5034645;28;20486;-61
2021/06/27 02:31:23;;;;;;;20.77;14.38;;;;;;;14.52;81.50;99448.38;5022988;28;20034;-61
2021/06/27 02:33:48;;;;;;;19.27;13.10;;;;;;;14.50;81.08;99439.75;5014986;28;20034;-61
2021/06/27 02:36:13;;;;;;;26.05;14.00;;;;;;;14.45;81.28;99438.66;5024516;28;20052;-61
2021/06/27 02:38:39;;;;;;;19.10;13.40;;;;;;;14.51;82.38;99430.59;5034561;28;20028;-60
2021/06/27 02:41:05;;;;;;;18.52;14.32;;;;;;;14.56;82.56;99427.94;5034142;28;20111;-61
2021/06/27 02:43:31;;;;;;;22.88;14.38;;;;;;;14.55;82.09;99431.69;5034187;28;20503;-61
2021/06/27 02:45:56;;;;;;;18.92;13.38;;;;;;;14.64;82.20;99432.81;5032738;28;20041;-61
2021/06/27 02:48:21;;;;;;;20.75;13.13;;;;;;;14.59;81.82;99433.63;5034345;28;20036;-61
2021/06/27 02:50:47;;;;;;;19.73;13.68;;;;;;;14.56;81.95;99417.97;5033935;28;20049;-61
2021/06/27 02:53:12;;;;;;;20.92;12.55;;;;;;;14.49;80.11;99408.47;5033967;28;20047;-61
2021/06/27 02:55:38;;;;;;;26.90;13.27;;;;;;;14.10;81.42;99409.63;5028436;28;20042;-61
2021/06/27 02:58:03;;;;;;;23.40;14.32;;;;;;;13.93;82.38;99409.81;5014062;28;20476;-61
2021/06/27 03:00:29;;;;;;;23.17;13.57;;;;;;;13.81;83.14;99406.50;5017587;28;20041;-61
2021/06/27 03:02:58;;;;;;;22.23;13.13;;;;;;;13.74;84.55;99405.91;5033856;28;20021;-61
2021/06/27 03:05:24;;;;;;;24.85;14.68;;;;;;;13.96;84.48;99413.88;5032175;28;20041;-61
2021/06/27 03:07:49;;;;;;;28.27;15.30;;;;;;;14.15;83.38;99414.22;5034039;28;20026;-61
2021/06/27 03:10:16;;;;;;;23.25;14.02;;;;;;;14.12;82.94;99414.75;5032216;28;20487;-61
2021/06/27 03:12:45;;;;;;;20.33;14.20;;;;;;;14.12;82.71;99414.75;5033875;28;20028;-61
2021/06/27 03:15:12;;;;;;;29.33;13.40;;;;;;;14.21;81.79;99410.50;5015828;28;20030;-61
2021/06/27 03:17:37;;;;;;;20.45;14.05;;;;;;;14.21;81.79;99413.19;5033958;28;20021;-61
2021/06/27 03:20:04;;;;;;;22.58;13.55;;;;;;;14.16;82.39;99415.88;5033420;28;20464;-61
2021/06/27 03:22:30;;;;;;;22.95;14.13;;;;;;;14.20;82.13;99414.25;5032192;28;20037;-61
2021/06/27 03:24:55;;;;;;;25.42;14.85;;;;;;;14.28;81.57;99432.66;5033061;28;20442;-60
2021/06/27 03:27:21;;;;;;;22.40;14.63;;;;;;;14.43;81.06;99442.69;5031840;28;20067;-61
2021/06/27 03:29:47;;;;;;;21.17;15.05;;;;;;;14.45;81.14;99441.38;5033802;28;20025;-61
2021/06/27 03:32:12;;;;;;;24.05;15.13;;;;;;;14.59;80.36;99443.59;5032057;28;20057;-61
2021/06/27 03:34:38;;;;;;;23.13;14.20;;;;;;;14.82;79.14;99451.22;5033495;28;20026;-61
2021/06/27 03:37:03;;;;;;;19.15;14.02;;;;;;;15.11;77.79;99453.47;5031664;28;20069;-61
2021/06/27 03:39:29;;;;;;;21.33;13.70;;;;;;;15.06;77.75;99448.06;5033172;28;20528;-61
2021/06/27 03:41:55;;;;;;;19.50;14.10;;;;;;;14.83;79.38;99439.38;5032808;28;20491;-62
2021/06/27 03:44:23;;;;;;;21.77;13.70;;;;;;;14.80;79.05;99425.59;5033219;28;20036;-62
2021/06/27 03:46:48;;;;;;;21.30;13.63;;;;;;;14.76;79.56;99416.41;5017852;28;20145;-61
2021/06/27 03:49:14;;;;;;;19.88;14.60;;;;;;;14.65;80.35;99421.78;5013297;28;20022;-61
2021/06/27 03:51:40;;;;;;;20.10;13.60;;;;;;;14.69;80.02;99413.97;5026443;28;20041;-61
2021/06/27 03:54:05;;;;;;;20.35;14.60;;;;;;;15.28;78.20;99418.94;5033042;28;20124;-61
2021/06/27 03:56:30;;;;;;;21.67;14.15;;;;;;;15.38;77.33;99414.66;5032625;28;20488;-61
2021/06/27 03:58:56;;;;;;;23.88;13.85;;;;;;;15.55;76.47;99417.91;5032974;28;20507;-61
2021/06/27 04:01:21;;;;;;;22.70;14.48;;;;;;;14.84;79.86;99413.19;5032344;28;20053;-61
2021/06/27 04:03:47;;;;;;;26.10;15.45;;;;;;;14.80;80.25;99412.94;5032853;28;20026;-61
2021/06/27 04:06:12;;;;;;;19.30;13.98;;;;;;;14.66;81.28;99417.19;5032431;28;20503;-61
2021/06/27 04:08:38;;;;;;;23.67;14.77;;;;;;;14.78;79.92;99420.47;5032767;28;20025;-61
2021/06/27 04:11:03;;;;;;;20.80;14.13;;;;;;;14.92;79.98;99414.56;5030975;28;20484;-61
2021/06/27 04:13:30;;;;;;;23.35;13.82;;;;;;;15.04;79.34;99412.44;5032810;28;20352;-62
2021/06/27 04:15:56;;;;;;;25.23;14.30;;;;;;;15.15;78.68;99402.44;5030963;28;20041;-61
2021/06/27 04:18:22;;;;;;;20.75;13.48;;;;;;;15.15;78.40;99408.69;5030932;28;20028;-61
2021/06/27 04:20:48;;;;;;;21.88;13.70;;;;;;;15.31;77.84;99417.59;5012448;28;20096;-62
2021/06/27 04:23:13;;;;;;;20.58;12.63;;;;;;;15.47;77.38;99421.13;5012867;28;20465;-61
2021/06/27 04:25:39;;;;;;;20.48;12.98;;;;;;;15.84;75.92;99420.84;5007096;28;20043;-61
2021/06/27 04:28:06;;;;;;;23.02;13.77;;;;;;;16.24;74.81;99412.94;4993411;28;20042;-62
2021/06/27 04:30:32;;;;;;;15.77;12.63;;;;;;;17.43;70.18;99395.81;4993076;28;20382;-61
2021/06/27 04:32:58;;;;;;;26.00;12.13;;;;;;;18.39;66.14;99395.13;4992293;28;20058;-61
2021/06/27 04:35:23;;;;;;;22.27;11.43;;;;;;;18.15;65.71;99395.16;4993881;28;20486;-62
2021/06/27 04:37:48;;;;;;;18.30;10.80;;;;;;;18.20;65.84;99387.75;4997410;28;20026;-62
2021/06/27 04:40:14;;;;;;;20.90;11.15;;;;;;;18.58;64.78;99387.84;4996902;28;20515;-62
2021/06/27 04:42:39;;;;;;;22.38;10.82;;;;;;;18.85;63.28;99394.59;4995944;28;20034;-62
2021/06/27 04:45:05;;;;;;;24.35;11.80;;;;;;;18.97;62.99;99386.81;4997058;28;20029;-62
2021/06/27 04:47:31;;;;;;;15.88;10.45;;;;;;;19.81;60.53;99403.13;4995899;28;20029;-62
2021/06/27 04:49:56;;;;;;;18.30;10.13;;;;;;;20.86;58.15;99402.41;4995940;28;20026;-62
2021/06/27 04:52:22;;;;;;;17.42;11.50;;;;;;;21.19;56.24;99406.88;4996618;28;20034;-61
2021/06/27 04:54:48;;;;;;;17.30;11.32;;;;;;;21.52;55.19;99410.22;4997049;28;20030;-62
2021/06/27 04:57:14;;;;;;;25.45;11.48;;;;;;;21.43;55.88;99406.59;4996723;28;20116;-62
2021/06/27 04:59:39;;;;;;;21.67;10.75;;;;;;;21.48;56.24;99404.56;4997262;28;20438;-62
2021/06/27 05:02:05;;;;;;;26.67;11.02;;;;;;;21.95;54.76;99417.84;4996461;28;20138;-62
2021/06/27 05:04:30;;;;;;;23.63;11.65;;;;;;;21.51;55.71;99411.31;4996903;28;20519;-62
2021/06/27 05:06:55;;;;;;;21.23;11.50;;;;;;;21.47;56.70;99402.16;4996342;28;20501;-62
2021/06/27 05:09:21;;;;;;;15.15;10.45;;;;;;;21.14;56.79;99393.34;4996800;28;20034;-62
2021/06/27 05:11:46;;;;;;;16.38;10.20;;;;;;;23.09;52.68;99388.94;4996453;28;20412;-62
2021/06/27 05:14:12;;;;;;;19.88;10.15;;;;;;;22.68;52.45;99390.16;4996904;28;20405;-61
2021/06/27 05:16:37;;;;;;;19.60;10.65;;;;;;;21.05;57.30;99390.56;5027744;28;20400;-62
2021/06/27 05:19:03;;;;;;;17.45;11.07;;;;;;;20.22;59.95;99396.13;4996687;28;20055;-62
2021/06/27 05:21:28;;;;;;;17.85;11.02;;;;;;;19.94;60.74;99393.34;4996182;28;20101;-62
2021/06/27 05:23:54;;;;;;;20.42;12.63;;;;;;;19.48;62.54;99387.91;4995220;28;20030;-62
2021/06/27 05:26:19;;;;;;;19.70;13.25;;;;;;;19.21;64.08;99388.63;4996254;28;20038;-62
2021/06/27 05:28:44;;;;;;;19.95;12.50;;;;;;;18.67;65.63;99396.97;4996369;28;20412;-61
2021/06/27 05:31:10;;;;;;;15.32;12.15;;;;;;;18.46;66.75;99390.97;4996163;28;20034;-61
2021/06/27 05:33:35;;;;;;;16.48;13.15;;;;;;;18.42;67.24;99386.41;4996335;28;20461;-62
2021/06/27 05:36:01;;;;;;;20.40;12.88;;;;;;;19.20;64.82;99382.38;4996029;28;20047;-62
2021/06/27 05:38:26;;;;;;;22.08;12.77;;;;;;;19.12;64.47;99369.44;4996219;28;20385;-62
2021/06/27 05:40:52;;;;;;;16.63;12.75;;;;;;;18.85;65.17;99370.94;4995763;28;20452;-61
2021/06/27 05:43:18;;;;;;;21.10;13.70;;;;;;;18.46;67.04;99374.69;4995134;28;20085;-61
2021/06/27 05:45:43;;;;;;;19.67;13.75;;;;;;;18.72;66.81;99377.06;4995543;28;20038;-61
2021/06/27 05:48:08;;;;;;;19.52;13.00;;;;;;;20.94;59.33;99379.09;4995521;28;20027;-61
2021/06/27 05:50:34;;;;;;;17.73;12.70;;;;;;;21.76;56.18;99379.84;4995713;28;20034;-62
2021/06/27 05:52:59;;;;;;;16.13;12.10;;;;;;;20.72;59.63;99385.31;4995923;28;20035;-62
2021/06/27 05:55:25;;;;;;;18.45;12.30;;;;;;;20.19;62.13;99383.94;4995645;28;20041;-62
2021/06/27 05:57:50;;;;;;;20.17;12.68;;;;;;;19.55;64.35;99378.25;4995933;28;20026;-62
2021/06/27 06:00:16;;;;;;;19.20;13.50;;;;;;;19.38;65.69;99380.72;4978048;28;20026;-62
2021/06/27 06:02:41;;;;;;;19.67;13.10;;;;;;;18.84;68.65;99373.94;4995671;28;20042;-62
2021/06/27 06:05:07;;;;;;;17.55;12.65;;;;;;;19.01;68.01;99374.22;4995547;28;20038;-62
2021/06/27 06:07:33;;;;;;;20.17;13.18;;;;;;;19.15;66.83;99377.81;4995672;28;20019;-62
2021/06/27 06:09:58;;;;;;;16.95;12.73;;;;;;;19.99;64.06;99387.84;4995674;28;20023;-61
2021/06/27 06:12:23;;;;;;;22.13;13.05;;;;;;;22.26;56.44;99379.59;4995242;28;20035;-62
2021/06/27 06:14:49;;;;;;;15.60;12.95;;;;;;;21.47;58.30;99385.78;5027181;28;20030;-61
2021/06/27 06:17:14;;;;;;;16.20;11.98;;;;;;;23.71;51.57;99385.78;4993853;28;20042;-62
2021/06/27 06:19:41;;;;;;;17.90;12.43;;;;;;;23.85;49.79;99388.38;4995517;28;20444;-62
2021/06/27 06:22:06;;;;;;;23.58;12.98;;;;;;;21.42;56.88;99384.00;4993798;28;20089;-62
2021/06/27 06:24:31;;;;;;;18.17;11.93;;;;;;;21.52;57.83;99388.38;4995383;28;20034;-62
2021/06/27 06:26:57;;;;;;;15.60;12.27;;;;;;;21.44;57.82;99380.94;4993789;28;20035;-62
2021/06/27 06:29:22;;;;;;;18.20;12.52;;;;;;;20.83;60.73;99370.34;5012435;28;20026;-62
2021/06/27 06:31:48;;;;;;;18.98;11.98;;;;;;;20.18;62.74;99373.34;5013166;28;20042;-62
2021/06/27 06:34:13;;;;;;;14.63;11.30;;;;;;;23.53;53.15;99386.97;5014784;28;20026;-62
2021/06/27 06:36:39;;;;;;;19.40;11.27;;;;;;;27.28;43.27;99388.72;5013230;28;20038;-62
2021/06/27 06:39:05;;;;;;;16.55;10.93;;;;;;;28.06;40.95;99389.22;5014726;28;20034;-61
2021/06/27 06:41:30;;;;;;;12.23;10.15;;;;;;;29.12;38.23;99391.25;5014371;28;20042;-61
2021/06/27 06:43:55;;;;;;;16.95;10.48;;;;;;;28.69;38.81;99387.56;5013251;28;20369;-61
2021/06/27 06:46:21;;;;;;;15.07;9.93;;;;;;;26.72;42.84;99388.63;5014170;28;20049;-62
2021/06/27 06:48:46;;;;;;;15.25;11.02;;;;;;;28.79;38.72;99392.50;5013279;28;20029;-61
2021/06/27 06:51:12;;;;;;;15.35;10.82;;;;;;;29.48;37.78;99405.75;5014032;28;20045;-61
2021/06/27 06:53:37;;;;;;;13.95;9.43;;;;;;;29.61;36.95;99412.72;5014478;28;20032;-62
2021/06/27 06:56:03;;;;;;;17.60;9.50;;;;;;;30.00;36.09;99404.34;5022671;28;20048;-62
2021/06/27 06:58:29;;;;;;;15.43;9.27;;;;;;;29.38;37.30;99402.44;5034172;28;20080;-62
2021/06/27 07:00:58;;;;;;;14.15;9.68;;;;;;;29.19;37.99;99403.22;5033690;28;20045;-62
2021/06/27 07:03:24;;;;;;;12.18;9.70;;;;;;;28.63;39.00;99394.50;5034098;28;20034;-61
2021/06/27 07:05:49;;;;;;;14.07;9.68;;;;;;;29.06;38.38;99398.25;5033573;28;20061;-62
2021/06/27 07:08:15;;;;;;;16.27;9.57;;;;;;;28.92;38.63;99402.25;5033881;28;20029;-62
2021/06/27 07:10:41;;;;;;;12.43;9.70;;;;;;;29.05;38.53;99405.66;5027994;28;20117;-61
2021/06/27 07:13:06;;;;;;;12.30;9.45;;;;;;;28.52;39.38;99399.78;5014265;28;20045;-61
2021/06/27 07:15:32;;;;;;;13.70;9.60;;;;;;;27.80;41.33;99397.16;5017791;28;20092;-61
2021/06/27 07:17:57;;;;;;;14.48;9.43;;;;;;;26.75;44.63;99390.66;5032702;28;20030;-61
2021/06/27 07:20:23;;;;;;;12.35;9.05;;;;;;;26.44;45.28;99394.00;5033245;28;20044;-61
2021/06/27 07:22:48;;;;;;;13.38;9.63;;;;;;;26.34;45.46;99389.00;5033415;28;20028;-61
2021/06/27 07:25:14;;;;;;;12.88;9.77;;;;;;;27.44;42.77;99396.22;5031384;28;20053;-61
2021/06/27 07:27:39;;;;;;;13.15;8.88;;;;;;;30.05;37.74;99387.47;5012638;28;20112;-61
2021/06/27 07:30:08;;;;;;;13.80;8.63;;;;;;;29.29;38.86;99382.53;5012619;28;20022;-61
2021/06/27 07:32:33;;;;;;;11.25;8.18;;;;;;;28.27;41.68;99388.13;5033573;28;20021;-61
2021/06/27 07:34:59;;;;;;;12.70;9.50;;;;;;;27.72;42.20;99390.66;5032136;28;20452;-61
2021/06/27 07:37:24;;;;;;;10.50;8.40;;;;;;;28.59;41.10;99386.94;5031628;28;20084;-61
2021/06/27 07:39:50;;;;;;;11.63;8.13;;;;;;;29.32;38.73;99394.81;5033331;28;20028;-61
2021/06/27 07:42:15;;;;;;;9.45;8.23;;;;;;;29.09;39.31;99392.00;5032816;28;20388;-62
2021/06/27 07:44:41;;;;;;;9.80;8.05;;;;;;;28.88;39.62;99395.88;5033176;28;20083;-62
2021/06/27 07:47:06;;;;;;;11.23;8.35;;;;;;;28.94;39.67;99394.41;5032843;28;20042;-62
2021/06/27 07:49:32;;;;;;;10.40;8.32;;;;;;;29.32;38.72;99386.53;5033060;28;20033;-60
2021/06/27 07:51:58;;;;;;;11.55;8.05;;;;;;;30.25;36.48;99399.28;5015603;28;20034;-60
2021/06/27 07:54:23;;;;;;;10.13;7.57;;;;;;;30.25;36.63;99393.75;5013517;28;20028;-61
2021/06/27 07:56:49;;;;;;;9.55;7.07;;;;;;;29.25;37.15;99376.13;5013023;28;20034;-61
2021/06/27 07:59:15;;;;;;;9.35;6.68;;;;;;;28.11;39.54;99374.38;5013320;28;20030;-60
2021/06/27 08:01:40;;;;;;;10.68;7.72;;;;;;;27.34;41.08;99374.72;5026278;28;20057;-62
2021/06/27 08:04:06;;;;;;;10.35;7.60;;;;;;;25.67;45.60;99377.31;5032953;28;20033;-62
2021/06/27 08:06:31;;;;;;;10.48;7.40;;;;;;;26.46;43.86;99375.25;5032498;28;20033;-62
2021/06/27 08:08:57;;;;;;;9.18;7.30;;;;;;;27.32;42.24;99381.34;5032660;28;20090;-61
2021/06/27 08:11:22;;;;;;;8.80;7.13;;;;;;;26.08;45.06;99370.09;5032396;28;20034;-63
2021/06/27 08:13:48;;;;;;;9.70;6.88;;;;;;;28.17;40.13;99376.50;5032962;28;20018;-62
2021/06/27 08:16:13;;;;;;;8.82;7.32;;;;;;;28.67;38.73;99374.13;5022643;28;20397;-62
2021/06/27 08:18:39;;;;;;;9.55;7.18;;;;;;;28.63;39.04;99377.94;5013048;28;20475;-62
2021/06/27 08:21:04;;;;;;;12.68;6.85;;;;;;;29.89;36.89;99382.88;5019831;28;20040;-62
2021/06/27 08:23:30;;;;;;;9.75;7.03;;;;;;;28.74;38.36;99379.00;5032325;28;20061;-62
2021/06/27 08:25:55;;;;;;;8.30;7.18;;;;;;;28.61;38.42;99386.59;5032422;28;20048;-62
2021/06/27 08:28:20;;;;;;;8.60;7.20;;;;;;;26.96;40.54;99379.53;5032947;28;20040;-62
2021/06/27 08:30:46;;;;;;;8.57;6.65;;;;;;;28.25;39.22;99376.66;5032551;28;20388;-62
2021/06/27 08:33:11;;;;;;;10.32;6.57;;;;;;;29.74;36.40;99375.50;5032497;28;20029;-62
2021/06/27 08:35:37;;;;;;;9.07;7.28;;;;;;;30.72;35.82;99378.63;5025981;28;20038;-62
2021/06/27 08:38:03;;;;;;;9.93;6.55;;;;;;;29.05;36.88;99378.06;5012906;28;20445;-62
2021/06/27 08:40:28;;;;;;;9.05;6.80;;;;;;;28.46;38.42;99374.44;5011222;28;20048;-62
2021/06/27 08:42:54;;;;;;;9.30;7.10;;;;;;;28.50;38.81;99375.31;5012791;28;20025;-62
2021/06/27 08:45:19;;;;;;;10.43;7.70;;;;;;;29.87;37.34;99374.16;5014910;28;20030;-62
2021/06/27 08:47:46;;;;;;;16.17;12.00;;;;;;;29.29;36.96;99376.22;5032659;28;20105;-62
2021/06/27 08:50:13;;;;;;;7.43;6.45;;;;;;;28.44;37.36;99379.50;5032112;28;20029;-62
2021/06/27 08:52:38;;;;;;;7.30;6.55;;;;;;;24.74;45.76;99375.53;5032672;28;20033;-62
2021/06/27 08:55:04;;;;;;;10.98;7.40;;;;;;;28.03;40.71;99370.66;5030757;28;20383;-62
2021/06/27 08:57:30;;;;;;;10.38;7.00;;;;;;;27.30;40.94;99369.88;5030982;28;20031;-61
2021/06/27 09:00:06;;;;;;;9.15;7.13;;;;;;;28.77;38.59;99367.25;5032515;28;20021;-62
2021/06/27 09:02:32;;;;;;;9.18;6.82;;;;;;;28.86;38.23;99365.09;4995863;28;20042;-62
2021/06/27 09:04:57;;;;;;;8.43;6.70;;;;;;;29.59;35.56;99366.13;5011247;28;20076;-61
2021/06/27 09:07:27;;;;;;;8.45;7.40;;;;;;;28.17;39.81;99362.72;5031593;28;20041;-61
2021/06/27 09:09:52;;;;;;;;;;;;;;;27.32;41.86;99351.09;5031388;28;20026;-60
2021/06/27 09:12:18;;;;;;;26.90;23.15;;;;;;;28.78;38.84;99347.59;5031946;28;19983;-61
2021/06/27 09:14:44;;;;;;;8.80;7.50;;;;;;;27.96;40.41;99343.72;5031009;28;20468;-61
2021/06/27 09:17:19;;;;;;;9.43;6.65;;;;;;;29.70;36.58;99346.22;5014225;28;20117;-61
2021/06/27 09:19:50;;;;;;;9.65;6.75;;;;;;;27.48;41.25;99342.06;5011601;28;20026;-62
2021/06/27 09:22:16;;;;;;;8.40;6.93;;;;;;;26.43;42.82;99342.94;5032292;28;20041;-62
2021/06/27 09:24:43;;;;;;;10.80;8.77;;;;;;;28.13;39.66;99344.50;5035801;28;20491;-62
2021/06/27 09:27:16;;;;;;;12.20;10.20;;;;;;;29.33;37.93;99349.47;5035504;28;20053;-62
2021/06/27 09:29:41;;;;;;;8.32;7.50;;;;;;;28.04;40.55;99346.66;5034532;28;20025;-62
2021/06/27 09:32:16;;;;;;;8.05;7.25;;;;;;;27.38;41.62;99348.06;5035376;28;20499;-62
2021/06/27 09:34:42;;;;;;;8.60;6.93;;;;;;;27.67;40.29;99344.91;5035841;28;20105;-62
2021/06/27 09:37:08;;;;;;;7.97;6.63;;;;;;;26.92;41.90;99336.56;5035227;28;20091;-62
2021/06/27 09:39:34;;;;;;;10.43;6.57;;;;;;;26.24;42.81;99324.31;5018047;28;20021;-62
2021/06/27 09:42:03;;;;;;;11.25;7.35;;;;;;;26.41;43.09;99326.81;5033930;28;20125;-62
2021/06/27 09:44:29;;;;;;;9.30;7.10;;;;;;;25.56;44.47;99322.88;5035652;28;20033;-62
2021/06/27 09:46:55;;;;;;;8.95;7.00;;;;;;;26.07;44.27;99321.81;5019478;28;20507;-62
2021/06/27 09:49:26;;;;;;;9.07;7.30;;;;;;;26.25;44.66;99318.47;5014664;28;20105;-62
2021/06/27 09:51:52;;;;;;;8.45;6.90;;;;;;;25.24;45.99;99319.03;5030200;28;20107;-62
2021/06/27 09:54:22;;;;;;;8.98;7.10;;;;;;;26.34;44.57;99312.84;5035383;28;20029;-62
2021/06/27 09:56:48;;;;;;;9.57;6.75;;;;;;;26.56;42.86;99308.84;5034881;28;20503;-62
2021/06/27 09:59:15;;;;;;;8.95;6.82;;;;;;;26.53;42.75;99308.72;5034103;28;20026;-62
2021/06/27 10:01:41;;;;;;;11.10;6.72;;;;;;;25.46;45.36;99319.75;5033276;28;20045;-61
2021/06/27 10:04:14;;;;;;;9.38;6.47;;;;;;;25.37;45.68;99312.44;5033876;28;20423;-62
2021/06/27 10:06:50;;;;;;;9.82;6.75;;;;;;;26.10;44.72;99319.16;5033446;28;20041;-61
2021/06/27 10:09:22;;;;;;;10.10;6.70;;;;;;;25.74;45.46;99322.69;5033767;28;20048;-60
2021/06/27 10:11:54;;;;;;;8.18;6.43;;;;;;;25.67;46.33;99315.00;5019841;28;20084;-61
2021/06/27 10:14:19;;;;;;;10.07;6.60;;;;;;;26.24;44.52;99318.81;5015305;28;20037;-61
2021/06/27 10:16:45;;;;;;;8.57;7.03;;;;;;;25.68;45.97;99307.56;5027809;28;20048;-62
2021/06/27 10:19:10;;;;;;;11.25;6.47;;;;;;;25.06;46.98;99303.81;5017107;28;20036;-62
2021/06/27 10:21:35;;;;;;;9.32;7.95;;;;;;;25.87;45.75;99305.09;5016688;28;20381;-62
2021/06/27 10:24:01;;;;;;;8.52;6.20;;;;;;;25.57;45.73;99308.00;5034698;28;20393;-61
2021/06/27 10:26:27;;;;;;;7.70;6.38;;;;;;;25.31;46.99;99310.22;5022304;28;20045;-61
2021/06/27 10:28:53;;;;;;;9.27;7.30;;;;;;;26.01;44.98;99300.06;5014943;28;20468;-61
2021/06/27 10:31:20;;;;;;;10.02;6.22;;;;;;;25.85;46.19;99306.56;5024594;28;20033;-62
2021/06/27 10:33:46;;;;;;;10.02;6.38;;;;;;;25.92;44.82;99307.59;5034146;28;20415;-62
2021/06/27 10:36:12;;;;;;;8.70;6.57;;;;;;;25.56;46.05;99311.91;5034194;28;20441;-61
2021/06/27 10:38:46;;;;;;;8.98;6.82;;;;;;;25.12;46.71;99307.97;5034471;28;20408;-61
2021/06/27 10:41:11;;;;;;;9.05;7.38;;;;;;;25.20;47.71;99306.31;5034119;28;20026;-62
2021/06/27 10:43:55;;;;;;;9.25;6.63;;;;;;;24.94;47.06;99304.59;5033129;28;20503;-61
2021/06/27 10:46:48;;;;;;;10.02;8.02;;;;;;;25.53;45.80;99303.53;5023159;28;20096;-61
2021/06/27 10:49:32;;;;;;;9.23;7.20;;;;;;;25.94;46.60;99294.34;5003248;28;20042;-62
2021/06/27 10:52:02;;;;;;;8.07;6.82;;;;;;;25.69;47.57;99299.00;5012910;28;20061;-62
2021/06/27 10:54:33;;;;;;;10.15;7.32;;;;;;;25.33;47.45;99306.00;5014560;28;20114;-62
2021/06/27 10:57:06;;;;;;;11.35;7.53;;;;;;;25.48;46.56;99299.06;5029990;28;20395;-61
2021/06/27 10:59:53;;;;;;;8.60;6.90;;;;;;;25.21;47.30;99305.16;5032830;28;20442;-61
2021/06/27 11:02:19;;;;;;;11.13;6.97;;;;;;;25.28;48.04;99298.00;5033341;28;20058;-61
2021/06/27 11:04:45;;;;;;;9.20;7.22;;;;;;;25.59;47.86;99293.97;5033913;28;20146;-61
2021/06/27 11:07:38;;;;;;;9.57;6.88;;;;;;;25.80;46.79;99293.84;5014455;28;20121;-61
2021/06/27 11:10:19;;;;;;;7.25;6.47;;;;;;;25.66;46.70;99291.44;5014068;28;20374;-61
2021/06/27 11:13:00;;;;;;;9.63;7.35;;;;;;;25.80;47.44;99288.34;5033673;28;20025;-61
2021/06/27 11:15:34;;;;;;;8.90;6.95;;;;;;;25.71;46.72;99301.38;5033277;28;20038;-61
2021/06/27 11:18:01;;;;;;;7.75;6.78;;;;;;;25.50;47.25;99296.78;5033484;28;20531;-61